sensor_id;sensor_type;location;lat;lon;timestamp;temperature;humidity
20498;DHT22;10407;53.238;10.448;2023-02-15T00:01:59;5.60;99.90
20498;DHT22;10407;53.238;10.448;2023-02-15T00:04:26;5.50;99.90
20498;DHT22;10407;53.238;10.448;2023-02-15T00:07:14;5.30;99.90
20498;DHT22;10407;53.238;10.448;2023-02-15T00:09:44;4.90;99.90
20498;DHT22;10407;53.238;10.448;2023-02-15T00:12:11;5.20;99.90
20498;DHT22;10407;53.238;10.448;2023-02-15T00:14:39;5.50;99.90
20498;DHT22;10407;53.238;10.448;2023-02-15T00:17:07;5.60;99.90
20498;DHT22;10407;53.238;10.448;2023-02-15T00:19:34;5.50;99.90
20498;DHT22;10407;53.238;10.448;2023-02-15T00:22:02;5.70;99.90
20498;DHT22;10407;53.238;10.448;2023-02-15T00:24:29;5.70;99.90
20498;DHT22;10407;53.238;10.448;2023-02-15T00:26:57;5.60;99.90
20498;DHT22;10407;53.238;10.448;2023-02-15T00:29:25;5.50;99.90
20498;DHT22;10407;53.238;10.448;2023-02-15T00:31:52;5.50;99.90
20498;DHT22;10407;53.238;10.448;2023-02-15T00:34:22;5.60;99.90
20498;DHT22;10407;53.238;10.448;2023-02-15T00:36:50;5.60;99.90
20498;DHT22;10407;53.238;10.448;2023-02-15T00:39:18;5.50;99.90
20498;DHT22;10407;53.238;10.448;2023-02-15T00:41:47;5.50;99.90
20498;DHT22;10407;53.238;10.448;2023-02-15T00:44:15;5.50;99.90
20498;DHT22;10407;53.238;10.448;2023-02-15T00:46:42;5.50;99.90
20498;DHT22;10407;53.238;10.448;2023-02-15T00:49:10;5.30;99.90
20498;DHT22;10407;53.238;10.448;2023-02-15T00:51:38;5.10;99.90
20498;DHT22;10407;53.238;10.448;2023-02-15T00:54:06;5.20;99.90
20498;DHT22;10407;53.238;10.448;2023-02-15T00:56:34;5.30;99.90
20498;DHT22;10407;53.238;10.448;2023-02-15T00:59:02;5.30;99.90
20498;DHT22;10407;53.238;10.448;2023-02-15T01:01:30;5.10;99.90
20498;DHT22;10407;53.238;10.448;2023-02-15T01:03:57;5.00;99.90
20498;DHT22;10407;53.238;10.448;2023-02-15T01:06:25;5.00;99.90
20498;DHT22;10407;53.238;10.448;2023-02-15T01:08:52;5.00;99.90
20498;DHT22;10407;53.238;10.448;2023-02-15T01:11:22;5.00;99.90
20498;DHT22;10407;53.238;10.448;2023-02-15T01:13:52;5.10;99.90
20498;DHT22;10407;53.238;10.448;2023-02-15T01:16:22;5.10;99.90
20498;DHT22;10407;53.238;10.448;2023-02-15T01:18:50;5.10;99.90
20498;DHT22;10407;53.238;10.448;2023-02-15T01:21:19;5.10;99.90
20498;DHT22;10407;53.238;10.448;2023-02-15T01:23:47;5.10;99.90
20498;DHT22;10407;53.238;10.448;2023-02-15T01:26:15;4.90;99.90
20498;DHT22;10407;53.238;10.448;2023-02-15T01:28:43;5.00;99.90
20498;DHT22;10407;53.238;10.448;2023-02-15T01:31:18;4.90;99.90
20498;DHT22;10407;53.238;10.448;2023-02-15T01:33:42;5.00;99.90
20498;DHT22;10407;53.238;10.448;2023-02-15T01:36:10;5.00;99.90
20498;DHT22;10407;53.238;10.448;2023-02-15T01:38:38;4.90;99.90
20498;DHT22;10407;53.238;10.448;2023-02-15T01:41:07;4.90;99.90
20498;DHT22;10407;53.238;10.448;2023-02-15T01:43:54;5.00;99.90
20498;DHT22;10407;53.238;10.448;2023-02-15T01:46:20;4.90;99.90
20498;DHT22;10407;53.238;10.448;2023-02-15T01:48:52;4.60;99.90
20498;DHT22;10407;53.238;10.448;2023-02-15T01:51:21;4.70;99.90
20498;DHT22;10407;53.238;10.448;2023-02-15T01:53:55;4.80;99.90
20498;DHT22;10407;53.238;10.448;2023-02-15T01:56:25;5.00;99.90
20498;DHT22;10407;53.238;10.448;2023-02-15T01:58:54;5.10;99.90
20498;DHT22;10407;53.238;10.448;2023-02-15T02:01:25;4.90;99.90
20498;DHT22;10407;53.238;10.448;2023-02-15T02:06:31;4.70;99.90
20498;DHT22;10407;53.238;10.448;2023-02-15T02:08:59;4.60;99.90
20498;DHT22;10407;53.238;10.448;2023-02-15T02:11:27;4.40;99.90
20498;DHT22;10407;53.238;10.448;2023-02-15T02:13:55;4.50;99.90
20498;DHT22;10407;53.238;10.448;2023-02-15T02:16:30;4.60;99.90
20498;DHT22;10407;53.238;10.448;2023-02-15T02:27:50;4.60;99.90
20498;DHT22;10407;53.238;10.448;2023-02-15T02:35:51;4.30;99.90
20498;DHT22;10407;53.238;10.448;2023-02-15T02:38:31;4.10;99.90
20498;DHT22;10407;53.238;10.448;2023-02-15T02:43:54;4.40;99.90
20498;DHT22;10407;53.238;10.448;2023-02-15T02:46:28;4.60;99.90
20498;DHT22;10407;53.238;10.448;2023-02-15T02:48:56;4.60;99.90
20498;DHT22;10407;53.238;10.448;2023-02-15T02:51:24;4.50;99.90
20498;DHT22;10407;53.238;10.448;2023-02-15T02:53:53;4.50;99.90
20498;DHT22;10407;53.238;10.448;2023-02-15T02:56:29;4.40;99.90
20498;DHT22;10407;53.238;10.448;2023-02-15T02:59:09;4.50;99.90
20498;DHT22;10407;53.238;10.448;2023-02-15T03:01:39;4.60;99.90
20498;DHT22;10407;53.238;10.448;2023-02-15T03:04:13;4.50;99.90
20498;DHT22;10407;53.238;10.448;2023-02-15T03:06:50;4.50;99.90
20498;DHT22;10407;53.238;10.448;2023-02-15T03:09:20;4.50;99.90
20498;DHT22;10407;53.238;10.448;2023-02-15T03:11:47;4.50;99.90
20498;DHT22;10407;53.238;10.448;2023-02-15T03:14:16;4.30;99.90
20498;DHT22;10407;53.238;10.448;2023-02-15T03:16:47;4.20;99.90
20498;DHT22;10407;53.238;10.448;2023-02-15T03:19:25;4.30;99.90
20498;DHT22;10407;53.238;10.448;2023-02-15T03:21:57;4.40;99.90
20498;DHT22;10407;53.238;10.448;2023-02-15T03:24:34;4.20;99.90
20498;DHT22;10407;53.238;10.448;2023-02-15T03:26:57;4.20;99.90
20498;DHT22;10407;53.238;10.448;2023-02-15T03:29:27;4.30;99.90
20498;DHT22;10407;53.238;10.448;2023-02-15T03:32:03;4.10;99.90
20498;DHT22;10407;53.238;10.448;2023-02-15T03:34:27;4.00;99.90
20498;DHT22;10407;53.238;10.448;2023-02-15T03:37:13;4.10;99.90
20498;DHT22;10407;53.238;10.448;2023-02-15T03:40:26;4.20;99.90
20498;DHT22;10407;53.238;10.448;2023-02-15T03:42:21;4.20;99.90
20498;DHT22;10407;53.238;10.448;2023-02-15T03:44:57;4.10;99.90
20498;DHT22;10407;53.238;10.448;2023-02-15T03:47:27;3.80;99.90
20498;DHT22;10407;53.238;10.448;2023-02-15T03:50:20;3.80;99.90
20498;DHT22;10407;53.238;10.448;2023-02-15T03:52:28;4.00;99.90
20498;DHT22;10407;53.238;10.448;2023-02-15T03:54:57;3.90;99.90
20498;DHT22;10407;53.238;10.448;2023-02-15T03:57:27;3.90;99.90
20498;DHT22;10407;53.238;10.448;2023-02-15T04:00:18;4.00;99.90
20498;DHT22;10407;53.238;10.448;2023-02-15T04:05:38;3.90;99.90
20498;DHT22;10407;53.238;10.448;2023-02-15T04:08:06;4.00;99.90
20498;DHT22;10407;53.238;10.448;2023-02-15T04:10:34;4.00;99.90
20498;DHT22;10407;53.238;10.448;2023-02-15T04:13:32;3.90;99.90
20498;DHT22;10407;53.238;10.448;2023-02-15T04:15:59;3.90;99.90
20498;DHT22;10407;53.238;10.448;2023-02-15T04:18:31;3.70;99.90
20498;DHT22;10407;53.238;10.448;2023-02-15T04:21:17;3.70;99.90
20498;DHT22;10407;53.238;10.448;2023-02-15T04:24:03;3.70;99.90
20498;DHT22;10407;53.238;10.448;2023-02-15T04:26:50;3.60;99.90
20498;DHT22;10407;53.238;10.448;2023-02-15T04:29:20;3.80;99.90
20498;DHT22;10407;53.238;10.448;2023-02-15T04:31:48;3.70;99.90
20498;DHT22;10407;53.238;10.448;2023-02-15T04:34:16;3.80;99.90
20498;DHT22;10407;53.238;10.448;2023-02-15T04:36:44;3.80;99.90
20498;DHT22;10407;53.238;10.448;2023-02-15T04:39:16;3.70;99.90
20498;DHT22;10407;53.238;10.448;2023-02-15T04:41:45;3.60;99.90
20498;DHT22;10407;53.238;10.448;2023-02-15T04:44:14;3.70;99.90
20498;DHT22;10407;53.238;10.448;2023-02-15T04:46:42;3.20;99.90
20498;DHT22;10407;53.238;10.448;2023-02-15T04:49:09;3.20;99.90
20498;DHT22;10407;53.238;10.448;2023-02-15T04:51:37;3.60;99.90
20498;DHT22;10407;53.238;10.448;2023-02-15T04:54:04;3.30;99.90
20498;DHT22;10407;53.238;10.448;2023-02-15T04:56:32;3.40;99.90
20498;DHT22;10407;53.238;10.448;2023-02-15T04:59:01;3.50;99.90
20498;DHT22;10407;53.238;10.448;2023-02-15T05:01:28;3.50;99.90
20498;DHT22;10407;53.238;10.448;2023-02-15T05:03:57;3.50;99.90
20498;DHT22;10407;53.238;10.448;2023-02-15T05:06:24;3.50;99.90
20498;DHT22;10407;53.238;10.448;2023-02-15T05:08:52;3.40;99.90
20498;DHT22;10407;53.238;10.448;2023-02-15T05:11:19;3.60;99.90
20498;DHT22;10407;53.238;10.448;2023-02-15T05:13:47;3.60;99.90
20498;DHT22;10407;53.238;10.448;2023-02-15T05:16:15;3.40;99.90
20498;DHT22;10407;53.238;10.448;2023-02-15T05:18:42;3.20;99.90
20498;DHT22;10407;53.238;10.448;2023-02-15T05:21:10;3.00;99.90
20498;DHT22;10407;53.238;10.448;2023-02-15T05:23:37;3.00;99.90
20498;DHT22;10407;53.238;10.448;2023-02-15T05:26:05;2.80;99.90
20498;DHT22;10407;53.238;10.448;2023-02-15T05:28:51;3.20;99.90
20498;DHT22;10407;53.238;10.448;2023-02-15T05:31:19;3.40;99.90
20498;DHT22;10407;53.238;10.448;2023-02-15T05:33:47;3.60;99.90
20498;DHT22;10407;53.238;10.448;2023-02-15T05:36:14;3.50;99.90
20498;DHT22;10407;53.238;10.448;2023-02-15T05:38:42;3.50;99.90
20498;DHT22;10407;53.238;10.448;2023-02-15T05:41:11;3.60;99.90
20498;DHT22;10407;53.238;10.448;2023-02-15T05:43:39;3.50;99.90
20498;DHT22;10407;53.238;10.448;2023-02-15T05:46:07;3.30;99.90
20498;DHT22;10407;53.238;10.448;2023-02-15T05:48:35;3.30;99.90
20498;DHT22;10407;53.238;10.448;2023-02-15T05:53:35;3.30;99.90
20498;DHT22;10407;53.238;10.448;2023-02-15T05:56:04;3.40;99.90
20498;DHT22;10407;53.238;10.448;2023-02-15T05:58:35;3.30;99.90
20498;DHT22;10407;53.238;10.448;2023-02-15T06:01:17;3.40;99.90
20498;DHT22;10407;53.238;10.448;2023-02-15T06:03:47;3.50;99.90
20498;DHT22;10407;53.238;10.448;2023-02-15T06:06:15;3.50;99.90
20498;DHT22;10407;53.238;10.448;2023-02-15T06:08:43;3.50;99.90
20498;DHT22;10407;53.238;10.448;2023-02-15T06:11:11;3.50;99.90
20498;DHT22;10407;53.238;10.448;2023-02-15T06:13:38;3.30;99.90
20498;DHT22;10407;53.238;10.448;2023-02-15T06:16:06;3.40;99.90
20498;DHT22;10407;53.238;10.448;2023-02-15T06:18:34;3.40;99.90
20498;DHT22;10407;53.238;10.448;2023-02-15T06:21:02;3.30;99.90
20498;DHT22;10407;53.238;10.448;2023-02-15T06:23:29;3.50;99.90
20498;DHT22;10407;53.238;10.448;2023-02-15T06:25:57;3.50;99.90
20498;DHT22;10407;53.238;10.448;2023-02-15T06:28:24;3.20;99.90
20498;DHT22;10407;53.238;10.448;2023-02-15T06:30:52;3.30;99.90
20498;DHT22;10407;53.238;10.448;2023-02-15T06:33:20;3.20;99.90
20498;DHT22;10407;53.238;10.448;2023-02-15T06:35:47;3.40;99.90
20498;DHT22;10407;53.238;10.448;2023-02-15T06:38:15;3.20;99.90
20498;DHT22;10407;53.238;10.448;2023-02-15T06:40:42;3.20;99.90
20498;DHT22;10407;53.238;10.448;2023-02-15T06:43:10;3.20;99.90
20498;DHT22;10407;53.238;10.448;2023-02-15T06:45:37;3.30;99.90
20498;DHT22;10407;53.238;10.448;2023-02-15T06:48:05;3.40;99.90
20498;DHT22;10407;53.238;10.448;2023-02-15T06:50:34;3.50;99.90
20498;DHT22;10407;53.238;10.448;2023-02-15T06:53:02;3.50;99.90
20498;DHT22;10407;53.238;10.448;2023-02-15T06:55:30;3.50;99.90
20498;DHT22;10407;53.238;10.448;2023-02-15T06:57:57;3.60;99.90
20498;DHT22;10407;53.238;10.448;2023-02-15T07:00:25;3.50;99.90
20498;DHT22;10407;53.238;10.448;2023-02-15T07:02:56;3.50;99.90
20498;DHT22;10407;53.238;10.448;2023-02-15T07:05:25;3.30;99.90
20498;DHT22;10407;53.238;10.448;2023-02-15T07:07:58;3.30;99.90
20498;DHT22;10407;53.238;10.448;2023-02-15T07:10:26;3.20;99.90
20498;DHT22;10407;53.238;10.448;2023-02-15T07:12:54;3.30;99.90
20498;DHT22;10407;53.238;10.448;2023-02-15T07:15:22;3.40;99.90
20498;DHT22;10407;53.238;10.448;2023-02-15T07:17:49;3.20;99.90
20498;DHT22;10407;53.238;10.448;2023-02-15T07:20:19;3.40;99.90
20498;DHT22;10407;53.238;10.448;2023-02-15T07:22:48;3.40;99.90
20498;DHT22;10407;53.238;10.448;2023-02-15T07:25:17;3.50;99.90
20498;DHT22;10407;53.238;10.448;2023-02-15T07:27:45;3.10;99.90
20498;DHT22;10407;53.238;10.448;2023-02-15T07:30:15;3.40;99.90
20498;DHT22;10407;53.238;10.448;2023-02-15T07:32:43;3.40;99.90
20498;DHT22;10407;53.238;10.448;2023-02-15T07:35:29;3.40;99.90
20498;DHT22;10407;53.238;10.448;2023-02-15T07:37:57;3.40;99.90
20498;DHT22;10407;53.238;10.448;2023-02-15T07:40:24;3.20;99.90
20498;DHT22;10407;53.238;10.448;2023-02-15T07:42:52;3.20;99.90
20498;DHT22;10407;53.238;10.448;2023-02-15T07:45:21;3.10;99.90
20498;DHT22;10407;53.238;10.448;2023-02-15T07:47:49;3.30;99.90
20498;DHT22;10407;53.238;10.448;2023-02-15T07:50:16;3.40;99.90
20498;DHT22;10407;53.238;10.448;2023-02-15T07:52:44;3.50;99.90
20498;DHT22;10407;53.238;10.448;2023-02-15T07:55:11;3.50;99.90
20498;DHT22;10407;53.238;10.448;2023-02-15T08:00:30;3.70;99.90
20498;DHT22;10407;53.238;10.448;2023-02-15T08:02:59;3.70;99.90
20498;DHT22;10407;53.238;10.448;2023-02-15T08:05:44;3.70;99.90
20498;DHT22;10407;53.238;10.448;2023-02-15T08:08:12;3.90;99.90
20498;DHT22;10407;53.238;10.448;2023-02-15T08:11:03;3.70;99.90
20498;DHT22;10407;53.238;10.448;2023-02-15T08:13:53;3.80;99.90
20498;DHT22;10407;53.238;10.448;2023-02-15T08:16:27;3.90;99.90
20498;DHT22;10407;53.238;10.448;2023-02-15T08:18:56;3.90;99.90
20498;DHT22;10407;53.238;10.448;2023-02-15T08:21:26;4.10;99.90
20498;DHT22;10407;53.238;10.448;2023-02-15T08:23:55;4.10;99.90
20498;DHT22;10407;53.238;10.448;2023-02-15T08:26:24;4.20;99.90
20498;DHT22;10407;53.238;10.448;2023-02-15T08:28:52;3.80;99.90
20498;DHT22;10407;53.238;10.448;2023-02-15T08:31:20;4.00;99.90
20498;DHT22;10407;53.238;10.448;2023-02-15T08:33:50;4.00;99.90
20498;DHT22;10407;53.238;10.448;2023-02-15T08:36:20;4.30;99.90
20498;DHT22;10407;53.238;10.448;2023-02-15T08:38:48;4.30;99.90
20498;DHT22;10407;53.238;10.448;2023-02-15T08:41:21;4.10;99.90
20498;DHT22;10407;53.238;10.448;2023-02-15T08:43:54;4.10;99.90
20498;DHT22;10407;53.238;10.448;2023-02-15T08:46:23;4.20;99.90
20498;DHT22;10407;53.238;10.448;2023-02-15T08:48:52;4.20;99.90
20498;DHT22;10407;53.238;10.448;2023-02-15T08:51:22;4.40;99.90
20498;DHT22;10407;53.238;10.448;2023-02-15T08:53:52;4.50;99.90
20498;DHT22;10407;53.238;10.448;2023-02-15T08:56:22;4.40;99.90
20498;DHT22;10407;53.238;10.448;2023-02-15T08:58:51;4.50;99.90
20498;DHT22;10407;53.238;10.448;2023-02-15T09:01:24;4.50;99.90
20498;DHT22;10407;53.238;10.448;2023-02-15T09:03:55;4.40;99.90
20498;DHT22;10407;53.238;10.448;2023-02-15T09:06:22;4.60;99.90
20498;DHT22;10407;53.238;10.448;2023-02-15T09:08:50;4.60;99.90
20498;DHT22;10407;53.238;10.448;2023-02-15T09:11:20;4.50;99.90
20498;DHT22;10407;53.238;10.448;2023-02-15T09:14:06;4.70;99.90
20498;DHT22;10407;53.238;10.448;2023-02-15T09:16:32;4.70;99.90
20498;DHT22;10407;53.238;10.448;2023-02-15T09:19:01;4.50;99.90
20498;DHT22;10407;53.238;10.448;2023-02-15T09:21:32;4.60;99.90
20498;DHT22;10407;53.238;10.448;2023-02-15T09:24:02;4.50;99.90
20498;DHT22;10407;53.238;10.448;2023-02-15T09:26:33;4.70;99.90
20498;DHT22;10407;53.238;10.448;2023-02-15T09:29:02;4.60;99.90
20498;DHT22;10407;53.238;10.448;2023-02-15T09:31:42;4.70;99.90
20498;DHT22;10407;53.238;10.448;2023-02-15T09:34:07;4.80;99.90
20498;DHT22;10407;53.238;10.448;2023-02-15T09:36:37;4.70;99.90
20498;DHT22;10407;53.238;10.448;2023-02-15T09:39:14;4.80;99.90
20498;DHT22;10407;53.238;10.448;2023-02-15T09:53:16;4.90;99.90
20498;DHT22;10407;53.238;10.448;2023-02-15T10:01:06;4.90;99.90
20498;DHT22;10407;53.238;10.448;2023-02-15T10:03:42;4.90;99.90
20498;DHT22;10407;53.238;10.448;2023-02-15T10:06:28;4.80;99.90
20498;DHT22;10407;53.238;10.448;2023-02-15T10:31:19;5.30;99.90
20498;DHT22;10407;53.238;10.448;2023-02-15T10:33:44;5.30;99.90
20498;DHT22;10407;53.238;10.448;2023-02-15T10:41:53;5.40;99.90
20498;DHT22;10407;53.238;10.448;2023-02-15T10:49:59;5.90;99.90
20498;DHT22;10407;53.238;10.448;2023-02-15T10:55:36;5.70;99.90
20498;DHT22;10407;53.238;10.448;2023-02-15T11:00:45;6.00;99.90
20498;DHT22;10407;53.238;10.448;2023-02-15T11:04:07;6.10;99.90
20498;DHT22;10407;53.238;10.448;2023-02-15T11:06:08;6.30;99.90
20498;DHT22;10407;53.238;10.448;2023-02-15T11:08:45;6.30;99.90
20498;DHT22;10407;53.238;10.448;2023-02-15T11:11:15;6.00;99.90
20498;DHT22;10407;53.238;10.448;2023-02-15T11:13:48;6.10;99.90
20498;DHT22;10407;53.238;10.448;2023-02-15T11:16:17;6.10;99.90
20498;DHT22;10407;53.238;10.448;2023-02-15T11:18:48;5.40;99.90
20498;DHT22;10407;53.238;10.448;2023-02-15T11:23:52;5.70;99.90
20498;DHT22;10407;53.238;10.448;2023-02-15T11:29:38;5.80;99.90
20498;DHT22;10407;53.238;10.448;2023-02-15T11:32:14;5.80;99.90
20498;DHT22;10407;53.238;10.448;2023-02-15T11:34:51;5.80;99.90
20498;DHT22;10407;53.238;10.448;2023-02-15T11:37:18;6.40;99.90
20498;DHT22;10407;53.238;10.448;2023-02-15T11:39:50;6.50;99.90
20498;DHT22;10407;53.238;10.448;2023-02-15T11:42:19;6.60;99.90
20498;DHT22;10407;53.238;10.448;2023-02-15T11:45:02;6.70;99.90
20498;DHT22;10407;53.238;10.448;2023-02-15T11:47:28;6.10;99.90
20498;DHT22;10407;53.238;10.448;2023-02-15T11:49:56;6.30;99.90
20498;DHT22;10407;53.238;10.448;2023-02-15T11:52:25;6.40;99.90
20498;DHT22;10407;53.238;10.448;2023-02-15T11:54:53;6.50;99.90
20498;DHT22;10407;53.238;10.448;2023-02-15T11:57:30;6.30;99.90
20498;DHT22;10407;53.238;10.448;2023-02-15T12:00:30;6.50;99.90
20498;DHT22;10407;53.238;10.448;2023-02-15T12:02:55;7.00;99.90
20498;DHT22;10407;53.238;10.448;2023-02-15T12:05:25;6.90;99.90
20498;DHT22;10407;53.238;10.448;2023-02-15T12:08:01;7.20;99.90
20498;DHT22;10407;53.238;10.448;2023-02-15T12:10:33;7.30;99.90
20498;DHT22;10407;53.238;10.448;2023-02-15T12:13:18;7.10;99.90
20498;DHT22;10407;53.238;10.448;2023-02-15T12:15:49;6.90;99.90
20498;DHT22;10407;53.238;10.448;2023-02-15T12:21:14;7.30;99.90
20498;DHT22;10407;53.238;10.448;2023-02-15T12:23:47;6.70;99.90
20498;DHT22;10407;53.238;10.448;2023-02-15T12:26:28;6.60;99.90
20498;DHT22;10407;53.238;10.448;2023-02-15T12:28:53;6.90;99.90
20498;DHT22;10407;53.238;10.448;2023-02-15T12:31:36;7.00;99.90
20498;DHT22;10407;53.238;10.448;2023-02-15T12:34:03;7.10;99.90
20498;DHT22;10407;53.238;10.448;2023-02-15T12:36:42;7.00;99.90
20498;DHT22;10407;53.238;10.448;2023-02-15T12:39:19;7.00;99.90
20498;DHT22;10407;53.238;10.448;2023-02-15T12:44:27;7.50;99.90
20498;DHT22;10407;53.238;10.448;2023-02-15T12:47:00;7.60;99.90
20498;DHT22;10407;53.238;10.448;2023-02-15T12:49:34;7.50;99.90
20498;DHT22;10407;53.238;10.448;2023-02-15T12:52:04;7.60;99.90
20498;DHT22;10407;53.238;10.448;2023-02-15T12:54:36;7.10;99.90
20498;DHT22;10407;53.238;10.448;2023-02-15T12:59:58;7.20;99.90
20498;DHT22;10407;53.238;10.448;2023-02-15T13:02:41;7.50;99.90
20498;DHT22;10407;53.238;10.448;2023-02-15T13:07:48;7.20;99.90
20498;DHT22;10407;53.238;10.448;2023-02-15T13:11:09;7.30;99.90
20498;DHT22;10407;53.238;10.448;2023-02-15T13:12:58;7.40;99.90
20498;DHT22;10407;53.238;10.448;2023-02-15T13:15:32;7.60;99.90
20498;DHT22;10407;53.238;10.448;2023-02-15T13:18:00;7.70;99.90
20498;DHT22;10407;53.238;10.448;2023-02-15T13:20:29;7.60;99.90
20498;DHT22;10407;53.238;10.448;2023-02-15T13:23:06;7.80;99.90
20498;DHT22;10407;53.238;10.448;2023-02-15T13:25:40;7.70;99.90
20498;DHT22;10407;53.238;10.448;2023-02-15T13:28:10;7.70;99.90
20498;DHT22;10407;53.238;10.448;2023-02-15T13:30:42;7.70;99.90
20498;DHT22;10407;53.238;10.448;2023-02-15T13:38:23;7.60;99.90
20498;DHT22;10407;53.238;10.448;2023-02-15T13:40:55;7.50;99.90
20498;DHT22;10407;53.238;10.448;2023-02-15T13:43:35;7.70;99.90
20498;DHT22;10407;53.238;10.448;2023-02-15T13:46:09;7.30;99.90
20498;DHT22;10407;53.238;10.448;2023-02-15T13:57:48;7.60;99.90
20498;DHT22;10407;53.238;10.448;2023-02-15T14:00:30;7.70;99.90
20498;DHT22;10407;53.238;10.448;2023-02-15T14:06:05;7.40;99.90
20498;DHT22;10407;53.238;10.448;2023-02-15T14:19:39;7.50;99.90
20498;DHT22;10407;53.238;10.448;2023-02-15T14:22:16;7.50;99.90
20498;DHT22;10407;53.238;10.448;2023-02-15T14:24:59;7.30;99.90
20498;DHT22;10407;53.238;10.448;2023-02-15T14:30:20;7.50;99.90
20498;DHT22;10407;53.238;10.448;2023-02-15T14:32:49;7.60;99.90
20498;DHT22;10407;53.238;10.448;2023-02-15T14:35:21;7.70;99.90
20498;DHT22;10407;53.238;10.448;2023-02-15T14:38:02;7.60;99.90
20498;DHT22;10407;53.238;10.448;2023-02-15T14:43:46;7.80;99.90
20498;DHT22;10407;53.238;10.448;2023-02-15T14:48:55;7.90;99.90
20498;DHT22;10407;53.238;10.448;2023-02-15T14:56:47;7.90;99.90
20498;DHT22;10407;53.238;10.448;2023-02-15T14:59:20;8.00;99.90
20498;DHT22;10407;53.238;10.448;2023-02-15T15:07:24;7.90;99.90
20498;DHT22;10407;53.238;10.448;2023-02-15T15:10:04;8.00;99.90
20498;DHT22;10407;53.238;10.448;2023-02-15T15:12:36;8.00;99.90
20498;DHT22;10407;53.238;10.448;2023-02-15T15:15:04;7.90;99.90
20498;DHT22;10407;53.238;10.448;2023-02-15T15:25:49;7.70;99.90
20498;DHT22;10407;53.238;10.448;2023-02-15T15:31:14;7.80;99.90
20498;DHT22;10407;53.238;10.448;2023-02-15T15:36:41;7.90;99.90
20498;DHT22;10407;53.238;10.448;2023-02-15T15:42:01;7.80;99.90
20498;DHT22;10407;53.238;10.448;2023-02-15T15:50:15;7.70;99.90
20498;DHT22;10407;53.238;10.448;2023-02-15T15:52:57;7.70;99.90
20498;DHT22;10407;53.238;10.448;2023-02-15T15:55:22;7.60;99.90
20498;DHT22;10407;53.238;10.448;2023-02-15T15:57:53;7.60;99.90
20498;DHT22;10407;53.238;10.448;2023-02-15T16:00:34;7.60;99.90
20498;DHT22;10407;53.238;10.448;2023-02-15T16:03:01;7.50;99.90
20498;DHT22;10407;53.238;10.448;2023-02-15T16:05:37;7.50;99.90
20498;DHT22;10407;53.238;10.448;2023-02-15T16:08:05;7.40;99.90
20498;DHT22;10407;53.238;10.448;2023-02-15T16:10:33;7.30;99.90
20498;DHT22;10407;53.238;10.448;2023-02-15T16:13:05;7.30;99.90
20498;DHT22;10407;53.238;10.448;2023-02-15T16:15:44;7.10;99.90
20498;DHT22;10407;53.238;10.448;2023-02-15T16:18:16;6.80;99.90
20498;DHT22;10407;53.238;10.448;2023-02-15T16:20:52;6.80;99.90
20498;DHT22;10407;53.238;10.448;2023-02-15T16:28:38;6.60;99.90
20498;DHT22;10407;53.238;10.448;2023-02-15T16:31:15;6.50;99.90
20498;DHT22;10407;53.238;10.448;2023-02-15T16:33:44;6.60;99.90
20498;DHT22;10407;53.238;10.448;2023-02-15T16:36:20;6.40;99.90
20498;DHT22;10407;53.238;10.448;2023-02-15T16:41:26;6.50;99.90
20498;DHT22;10407;53.238;10.448;2023-02-15T16:43:57;6.40;99.90
20498;DHT22;10407;53.238;10.448;2023-02-15T16:46:35;6.20;99.90
20498;DHT22;10407;53.238;10.448;2023-02-15T16:49:07;6.30;99.90
20498;DHT22;10407;53.238;10.448;2023-02-15T16:51:36;6.20;99.90
20498;DHT22;10407;53.238;10.448;2023-02-15T16:54:08;6.20;99.90
20498;DHT22;10407;53.238;10.448;2023-02-15T16:56:37;6.20;99.90
20498;DHT22;10407;53.238;10.448;2023-02-15T16:59:06;6.20;99.90
20498;DHT22;10407;53.238;10.448;2023-02-15T17:01:33;6.10;99.90
20498;DHT22;10407;53.238;10.448;2023-02-15T17:07:17;6.00;99.90
20498;DHT22;10407;53.238;10.448;2023-02-15T17:09:51;6.00;99.90
20498;DHT22;10407;53.238;10.448;2023-02-15T17:12:47;5.90;99.90
20498;DHT22;10407;53.238;10.448;2023-02-15T17:20:46;5.70;99.90
20498;DHT22;10407;53.238;10.448;2023-02-15T17:23:25;5.80;99.90
20498;DHT22;10407;53.238;10.448;2023-02-15T17:25:51;5.70;99.90
20498;DHT22;10407;53.238;10.448;2023-02-15T17:28:22;5.60;99.90
20498;DHT22;10407;53.238;10.448;2023-02-15T17:30:51;5.60;99.90
20498;DHT22;10407;53.238;10.448;2023-02-15T17:38:33;5.60;99.90
20498;DHT22;10407;53.238;10.448;2023-02-15T17:41:00;5.50;99.90
20498;DHT22;10407;53.238;10.448;2023-02-15T17:43:28;5.60;99.90
20498;DHT22;10407;53.238;10.448;2023-02-15T17:45:57;5.50;99.90
20498;DHT22;10407;53.238;10.448;2023-02-15T17:51:05;5.60;99.90
20498;DHT22;10407;53.238;10.448;2023-02-15T17:53:33;5.50;99.90
20498;DHT22;10407;53.238;10.448;2023-02-15T17:56:10;5.50;99.90
20498;DHT22;10407;53.238;10.448;2023-02-15T17:58:38;5.40;99.90
20498;DHT22;10407;53.238;10.448;2023-02-15T18:01:11;5.50;99.90
20498;DHT22;10407;53.238;10.448;2023-02-15T18:03:54;5.60;99.90
20498;DHT22;10407;53.238;10.448;2023-02-15T18:06:42;5.70;99.90
20498;DHT22;10407;53.238;10.448;2023-02-15T18:09:27;5.70;99.90
20498;DHT22;10407;53.238;10.448;2023-02-15T18:12:21;5.70;99.90
20498;DHT22;10407;53.238;10.448;2023-02-15T18:14:50;5.60;99.90
20498;DHT22;10407;53.238;10.448;2023-02-15T18:17:23;5.50;99.90
20498;DHT22;10407;53.238;10.448;2023-02-15T18:19:50;5.50;99.90
20498;DHT22;10407;53.238;10.448;2023-02-15T18:22:19;5.40;99.90
20498;DHT22;10407;53.238;10.448;2023-02-15T18:24:48;5.40;99.90
20498;DHT22;10407;53.238;10.448;2023-02-15T18:27:16;5.50;99.90
20498;DHT22;10407;53.238;10.448;2023-02-15T18:29:43;5.60;99.90
20498;DHT22;10407;53.238;10.448;2023-02-15T18:32:16;5.60;99.90
20498;DHT22;10407;53.238;10.448;2023-02-15T18:34:46;5.60;99.90
20498;DHT22;10407;53.238;10.448;2023-02-15T18:37:21;5.40;99.90
20498;DHT22;10407;53.238;10.448;2023-02-15T18:39:50;5.40;99.90
20498;DHT22;10407;53.238;10.448;2023-02-15T18:42:31;5.30;99.90
20498;DHT22;10407;53.238;10.448;2023-02-15T18:47:40;5.10;99.90
20498;DHT22;10407;53.238;10.448;2023-02-15T18:50:08;5.00;99.90
20498;DHT22;10407;53.238;10.448;2023-02-15T18:52:37;4.90;99.90
20498;DHT22;10407;53.238;10.448;2023-02-15T18:55:19;4.90;99.90
20498;DHT22;10407;53.238;10.448;2023-02-15T18:57:48;5.00;99.90
20498;DHT22;10407;53.238;10.448;2023-02-15T19:00:24;5.00;99.90
20498;DHT22;10407;53.238;10.448;2023-02-15T19:02:47;4.90;99.90
20498;DHT22;10407;53.238;10.448;2023-02-15T19:05:15;4.80;99.90
20498;DHT22;10407;53.238;10.448;2023-02-15T19:07:45;4.80;99.90
20498;DHT22;10407;53.238;10.448;2023-02-15T19:10:21;4.70;99.90
20498;DHT22;10407;53.238;10.448;2023-02-15T19:12:45;4.60;99.90
20498;DHT22;10407;53.238;10.448;2023-02-15T19:15:15;4.60;99.90